Time;durP1;ratioP1;P1;durP2;ratioP2;P2;SDS_P1;SDS_P2;PMS_P1;PMS_P2;Temp;Humidity;BMP_temperature;BMP_pressure;BME280_temperature;BME280_humidity;BME280_pressure;Samples;Min_cycle;Max_cycle;Signal;HPM_P1;HPM_P2
2022/04/22 00:03:33;;;;;;;151.20;78.07;;;7.80;99.90;;;;;;10576468;28;20048;-84
2022/04/22 00:08:34;;;;;;;104.50;52.47;;;7.60;99.90;;;;;;10581504;28;20020;-83
2022/04/22 00:13:34;;;;;;;74.53;41.37;;;7.50;99.90;;;;;;10581128;28;20438;-82
2022/04/22 00:18:35;;;;;;;97.33;47.67;;;7.40;99.90;;;;;;10580376;28;20107;-83
2022/04/22 00:23:36;;;;;;;90.80;45.80;;;7.40;99.90;;;;;;10580462;28;20205;-83
2022/04/22 00:28:37;;;;;;;86.73;44.83;;;7.30;99.90;;;;;;10580506;28;20023;-83
2022/04/22 00:33:37;;;;;;;89.07;43.57;;;7.20;99.90;;;;;;10562160;28;20023;-83
2022/04/22 00:38:38;;;;;;;85.73;45.87;;;7.20;99.90;;;;;;10579250;28;20098;-82
2022/04/22 00:43:46;;;;;;;92.13;47.50;;;7.20;99.90;;;;;;10579592;28;20028;-83
2022/04/22 00:48:47;;;;;;;91.27;46.77;;;7.20;99.90;;;;;;10579725;28;20027;-82
2022/04/22 00:53:50;;;;;;;88.70;43.93;;;7.20;99.90;;;;;;10578928;28;20097;-82
2022/04/22 00:58:52;;;;;;;87.13;44.37;;;7.20;99.90;;;;;;10579319;28;20027;-83
2022/04/22 01:14:33;;;;;;;93.30;47.13;;;7.20;99.90;;;;;;10536513;28;20067;-84
2022/04/22 01:19:34;;;;;;;81.73;42.67;;;7.10;99.90;;;;;;10536512;28;20032;-83
2022/04/22 01:24:36;;;;;;;86.67;45.73;;;7.10;99.90;;;;;;10536014;28;20392;-84
2022/04/22 01:29:37;;;;;;;81.67;44.60;;;7.10;99.90;;;;;;10535516;28;20027;-83
2022/04/22 01:34:38;;;;;;;100.30;51.63;;;7.20;99.90;;;;;;10535368;28;20039;-82
2022/04/22 01:39:39;;;;;;;95.50;48.33;;;7.10;99.90;;;;;;10534754;28;20090;-83
2022/04/22 01:44:40;;;;;;;86.80;45.77;;;7.10;99.90;;;;;;10535239;28;20056;-83
2022/04/22 01:49:41;;;;;;;86.23;47.43;;;7.20;99.90;;;;;;10534922;28;20132;-83
2022/04/22 01:54:42;;;;;;;87.23;45.50;;;7.20;99.90;;;;;;10534567;28;20387;-82
2022/04/22 01:59:44;;;;;;;89.33;45.37;;;7.20;99.90;;;;;;10534255;28;20027;-83
2022/04/22 02:04:45;;;;;;;82.67;43.70;;;7.10;99.90;;;;;;10534009;28;20027;-83
2022/04/22 02:09:46;;;;;;;84.07;43.13;;;7.10;99.90;;;;;;10534549;28;20434;-83
2022/04/22 02:14:47;;;;;;;80.37;40.77;;;7.20;99.90;;;;;;10533682;28;20034;-83
2022/04/22 02:19:47;;;;;;;84.00;45.23;;;7.30;99.90;;;;;;10533661;28;20043;-83
2022/04/22 02:24:48;;;;;;;81.50;41.57;;;7.20;99.90;;;;;;10534548;28;20039;-83
2022/04/22 02:29:49;;;;;;;82.10;40.40;;;7.20;99.90;;;;;;10514555;28;20024;-83
2022/04/22 02:34:50;;;;;;;81.23;41.97;;;7.20;99.90;;;;;;10533011;28;20028;-83
2022/04/22 02:39:51;;;;;;;71.00;37.47;;;7.20;99.90;;;;;;10533138;28;20164;-84
2022/04/22 02:50:10;;;;;;;79.53;40.50;;;7.30;99.90;;;;;;10532688;28;20482;-83
2022/04/22 02:55:11;;;;;;;80.40;43.17;;;7.30;99.90;;;;;;10532757;28;20024;-83
2022/04/22 03:00:13;;;;;;;88.53;44.27;;;7.20;99.90;;;;;;10602119;28;20072;-83
2022/04/22 03:05:14;;;;;;;89.67;45.33;;;7.20;99.90;;;;;;10561100;28;20025;-82
2022/04/22 03:10:14;;;;;;;92.43;45.93;;;7.10;99.90;;;;;;10532882;28;20032;-83
2022/04/22 03:15:16;;;;;;;88.47;44.77;;;7.00;99.90;;;;;;10533056;28;20028;-85
2022/04/22 03:20:17;;;;;;;83.23;41.97;;;7.00;99.90;;;;;;10514303;28;20040;-84
2022/04/22 03:25:20;;;;;;;79.13;41.47;;;7.10;99.90;;;;;;10532322;28;20028;-83
2022/04/22 03:30:21;;;;;;;79.17;40.80;;;7.10;99.90;;;;;;10532135;28;20073;-83
2022/04/22 03:35:21;;;;;;;87.00;42.10;;;7.10;99.90;;;;;;10532097;28;20028;-83
2022/04/22 03:40:22;;;;;;;74.10;39.13;;;7.10;99.90;;;;;;10536695;28;20059;-83
2022/04/22 03:45:23;;;;;;;84.57;42.70;;;7.10;99.90;;;;;;10539714;28;20050;-84
2022/04/22 03:50:25;;;;;;;85.87;44.07;;;7.10;99.90;;;;;;10539726;28;20021;-84
2022/04/22 03:55:25;;;;;;;91.00;49.17;;;7.10;99.90;;;;;;10538559;28;20028;-84
2022/04/22 04:00:26;;;;;;;73.87;39.67;;;7.20;99.90;;;;;;10538902;28;20035;-83
2022/04/22 04:05:27;;;;;;;91.00;45.80;;;7.20;99.90;;;;;;10539454;28;20081;-84
2022/04/22 04:15:57;;;;;;;96.17;48.20;;;7.30;99.90;;;;;;10521865;28;20142;-83
2022/04/22 04:26:27;;;;;;;86.43;45.10;;;7.60;99.90;;;;;;10538619;28;20446;-83
2022/04/22 04:31:28;;;;;;;88.50;45.50;;;7.60;99.90;;;;;;10537996;28;20036;-83
2022/04/22 04:36:29;;;;;;;95.30;50.17;;;7.70;99.90;;;;;;10538108;28;20024;-83
2022/04/22 04:41:30;;;;;;;96.60;51.97;;;7.90;99.90;;;;;;10538152;28;20489;-83
2022/04/22 04:46:30;;;;;;;98.87;50.37;;;8.00;99.90;;;;;;10537393;28;20032;-83
2022/04/22 04:51:31;;;;;;;92.80;44.67;;;8.10;99.90;;;;;;10536353;28;20024;-83
2022/04/22 04:56:31;;;;;;;77.53;43.17;;;8.30;99.90;;;;;;10537306;28;20081;-83
2022/04/22 05:01:32;;;;;;;81.03;41.80;;;8.50;99.90;;;;;;10536135;28;20039;-83
2022/04/22 05:06:32;;;;;;;78.27;40.10;;;8.70;99.90;;;;;;10537010;28;20039;-83
2022/04/22 05:11:33;;;;;;;73.47;37.37;;;8.80;99.90;;;;;;10536402;28;20030;-83
2022/04/22 05:16:34;;;;;;;74.43;36.63;;;8.90;99.90;;;;;;10536261;28;20043;-82
2022/04/22 05:21:35;;;;;;;66.23;36.50;;;9.00;99.90;;;;;;10536017;28;20032;-83
2022/04/22 05:26:35;;;;;;;72.57;38.83;;;9.00;99.90;;;;;;10535732;28;20066;-82
2022/04/22 05:36:55;;;;;;;75.27;40.53;;;9.10;99.90;;;;;;10535784;28;20036;-83
2022/04/22 05:41:56;;;;;;;76.57;42.77;;;9.10;99.90;;;;;;10542177;27;20051;-85
2022/04/22 05:46:57;;;;;;;64.57;36.00;;;9.10;99.90;;;;;;10580897;27;20215;-83
2022/04/22 05:51:57;;;;;;;77.30;39.27;;;9.20;99.90;;;;;;10577858;27;20032;-83
2022/04/22 05:56:58;;;;;;;75.87;39.83;;;9.20;99.90;;;;;;10579437;27;20031;-82
2022/04/22 06:01:58;;;;;;;72.47;39.17;;;9.20;99.90;;;;;;10579200;27;20393;-82
2022/04/22 06:06:59;;;;;;;68.63;38.43;;;9.30;99.90;;;;;;10569524;27;20372;-82
2022/04/22 06:12:00;;;;;;;74.47;39.37;;;9.40;99.90;;;;;;10578788;27;20395;-83
2022/04/22 06:17:00;;;;;;;77.93;38.73;;;9.50;99.90;;;;;;10566228;27;20031;-82
2022/04/22 06:22:01;;;;;;;70.73;39.13;;;9.50;99.90;;;;;;10559956;28;20043;-82
2022/04/22 06:27:02;;;;;;;70.40;36.53;;;9.70;99.90;;;;;;10569189;28;20036;-84
2022/04/22 06:32:03;;;;;;;61.00;32.77;;;9.80;99.90;;;;;;10572731;27;20161;-85
2022/04/22 06:37:04;;;;;;;59.03;31.80;;;9.90;99.90;;;;;;10566659;27;20066;-83
2022/04/22 06:47:25;;;;;;;49.65;26.83;;;10.40;99.90;;;;;;10574474;28;20028;-82
2022/04/22 06:52:25;;;;;;;52.73;27.10;;;10.70;99.90;;;;;;10570671;28;20027;-82
2022/04/22 06:57:29;;;;;;;44.08;25.10;;;10.90;99.90;;;;;;10577347;28;20019;-83
2022/04/22 07:02:30;;;;;;;51.75;28.17;;;10.80;99.90;;;;;;10596233;28;20042;-83
2022/04/22 07:07:31;;;;;;;46.92;26.05;;;10.90;99.90;;;;;;10576216;28;20547;-82
2022/04/22 07:12:33;;;;;;;49.25;26.70;;;10.90;99.90;;;;;;10593543;27;20054;-83
2022/04/22 07:17:35;;;;;;;50.22;25.60;;;10.80;99.90;;;;;;10581773;27;20507;-83
2022/04/22 07:22:37;;;;;;;43.25;24.40;;;10.80;99.90;;;;;;10583867;27;20122;-83
2022/04/22 07:27:40;;;;;;;47.90;25.80;;;11.00;99.90;;;;;;10556244;28;20523;-83
2022/04/22 07:32:45;;;;;;;46.75;25.00;;;11.00;99.90;;;;;;10573424;28;20352;-83
2022/04/22 07:37:51;;;;;;;46.10;25.13;;;10.90;99.90;;;;;;10562570;28;20121;-83
2022/04/22 07:48:13;;;;;;;49.22;25.90;;;10.80;99.90;;;;;;10580751;28;20031;-83
2022/04/22 07:53:17;;;;;;;51.07;27.37;;;10.50;99.90;;;;;;10559359;28;20393;-83
2022/04/22 07:58:19;;;;;;;56.20;28.87;;;10.40;99.90;;;;;;10541617;28;20073;-83
2022/04/22 08:03:19;;;;;;;46.33;26.00;;;10.10;99.90;;;;;;10580346;28;20126;-82
2022/04/22 08:08:20;;;;;;;49.23;25.23;;;10.00;99.90;;;;;;10562037;28;20453;-83
2022/04/22 08:13:21;;;;;;;47.70;25.60;;;10.00;99.90;;;;;;10581081;28;20043;-84
2022/04/22 08:18:21;;;;;;;45.00;24.67;;;10.10;99.90;;;;;;10529718;28;20051;-83
2022/04/22 08:23:22;;;;;;;44.70;24.97;;;10.20;99.90;;;;;;10540874;28;20405;-84
2022/04/22 08:28:23;;;;;;;47.63;24.97;;;10.30;99.90;;;;;;10579570;28;20020;-83
2022/04/22 08:33:23;;;;;;;45.05;25.67;;;10.50;99.90;;;;;;10580128;28;20027;-82
2022/04/22 08:38:24;;;;;;;41.87;24.73;;;10.60;99.90;;;;;;10579441;28;20109;-83
2022/04/22 08:43:25;;;;;;;40.78;22.83;;;10.60;99.90;;;;;;10560845;28;20040;-84
2022/04/22 08:53:50;;;;;;;39.00;21.35;;;10.60;99.90;;;;;;10577205;28;20039;-83
2022/04/22 08:58:51;;;;;;;47.75;23.83;;;10.90;99.90;;;;;;10559410;28;20023;-84
2022/04/22 09:03:51;;;;;;;51.42;26.33;;;10.90;99.90;;;;;;10576617;28;20043;-84
2022/04/22 09:08:56;;;;;;;53.90;27.33;;;11.20;99.90;;;;;;10576646;28;20481;-84
2022/04/22 09:14:00;;;;;;;53.80;27.63;;;11.10;99.90;;;;;;10575879;28;20028;-84
2022/04/22 09:19:03;;;;;;;59.83;28.58;;;11.00;99.90;;;;;;10569452;28;20027;-83
2022/04/22 09:24:14;;;;;;;52.28;26.95;;;10.90;99.90;;;;;;10577996;28;20027;-85
2022/04/22 09:29:14;;;;;;;54.53;26.98;;;11.10;99.90;;;;;;10559412;28;20110;-83
2022/04/22 09:34:15;;;;;;;55.53;27.48;;;11.10;99.90;;;;;;10577619;28;20114;-84
2022/04/22 09:44:39;;;;;;;74.53;36.95;;;11.30;99.90;;;;;;10577070;28;20106;-83
2022/04/22 09:49:43;;;;;;;61.72;30.17;;;11.50;99.90;;;;;;10575009;28;20127;-83
2022/04/22 09:54:59;;;;;;;49.22;24.80;;;11.60;99.90;;;;;;10558818;28;20036;-84
2022/04/22 09:59:59;;;;;;;48.05;25.17;;;11.60;99.90;;;;;;10570119;28;20115;-83
2022/04/22 10:05:01;;;;;;;47.55;24.08;;;11.70;99.90;;;;;;10576080;28;20041;-83
2022/04/22 10:10:03;;;;;;;42.53;23.45;;;11.60;99.90;;;;;;10572889;28;20112;-83
2022/04/22 10:15:06;;;;;;;36.10;18.92;;;11.40;99.90;;;;;;10563591;28;20034;-84
2022/04/22 10:20:07;;;;;;;36.22;19.05;;;11.00;99.90;;;;;;10528254;28;20407;-84
2022/04/22 10:25:09;;;;;;;31.42;16.98;;;10.80;99.90;;;;;;10532736;28;20023;-83
2022/04/22 10:30:11;;;;;;;25.23;14.48;;;10.90;99.90;;;;;;10533706;28;20028;-83
2022/04/22 10:35:14;;;;;;;23.73;12.70;;;11.10;99.90;;;;;;10533556;28;20056;-83
2022/04/22 10:40:22;;;;;;;26.02;14.48;;;11.10;99.90;;;;;;10532744;28;20415;-83
2022/04/22 10:50:52;;;;;;;31.42;16.88;;;11.30;99.90;;;;;;10533367;28;20032;-84
2022/04/22 10:56:13;;;;;;;20.95;10.63;;;11.50;99.90;;;;;;10532534;28;20586;-84
2022/04/22 11:01:29;;;;;;;31.52;16.58;;;11.60;99.90;;;;;;10546872;28;20076;-85
2022/04/22 11:06:34;;;;;;;16.83;9.98;;;11.70;99.90;;;;;;10573988;28;20471;-83
2022/04/22 11:11:41;;;;;;;21.92;11.82;;;11.80;99.90;;;;;;10574043;28;20016;-83
2022/04/22 11:16:42;;;;;;;23.60;12.13;;;11.90;99.90;;;;;;10572705;28;20465;-83
2022/04/22 11:21:42;;;;;;;17.45;9.43;;;12.00;99.90;;;;;;10572330;28;20042;-84
2022/04/22 11:26:44;;;;;;;16.33;10.15;;;12.10;99.90;;;;;;10573725;28;20032;-83
2022/04/22 11:31:56;;;;;;;21.02;11.27;;;12.40;99.90;;;;;;10574426;28;20390;-84
2022/04/22 11:36:57;;;;;;;14.57;9.57;;;12.40;99.90;;;;;;10574489;28;20027;-83
2022/04/22 11:41:58;;;;;;;21.02;11.77;;;12.60;99.90;;;;;;10572892;28;20056;-83
2022/04/22 11:47:01;;;;;;;14.50;8.52;;;13.00;99.90;;;;;;10575287;28;20036;-83
2022/04/22 11:52:02;;;;;;;26.52;15.85;;;13.30;98.00;;;;;;10573737;28;20038;-84
2022/04/22 11:57:03;;;;;;;20.52;12.27;;;13.80;95.80;;;;;;10573864;28;20031;-84
2022/04/22 12:12:54;;;;;;;28.65;15.90;;;13.50;91.20;;;;;;10581135;28;20036;-82
2022/04/22 12:17:56;;;;;;;18.15;10.73;;;14.00;92.80;;;;;;10576390;28;20413;-83
2022/04/22 12:22:57;;;;;;;15.25;10.43;;;14.40;90.10;;;;;;10569657;28;20036;-84
2022/04/22 12:28:13;;;;;;;13.90;8.77;;;14.70;87.50;;;;;;10578999;28;20039;-84
2022/04/22 12:33:20;;;;;;;10.93;7.38;;;14.40;85.10;;;;;;10579830;28;20023;-84
2022/04/22 12:38:23;;;;;;;11.90;7.57;;;14.20;85.20;;;;;;10579492;28;20052;-84
2022/04/22 12:43:31;;;;;;;14.93;9.57;;;13.70;85.30;;;;;;10579663;28;20403;-83
2022/04/22 12:54:04;;;;;;;17.80;12.13;;;12.90;91.90;;;;;;10575243;28;20031;-85
2022/04/22 12:59:06;;;;;;;18.00;11.87;;;12.80;93.50;;;;;;10577642;28;20032;-84
2022/04/22 13:04:19;;;;;;;17.77;11.60;;;12.70;96.70;;;;;;10578649;28;20469;-83
2022/04/22 13:09:22;;;;;;;20.60;12.70;;;12.70;95.80;;;;;;10578315;28;20027;-85
2022/04/22 13:14:23;;;;;;;20.88;13.68;;;12.60;96.80;;;;;;10578597;28;20034;-84
2022/04/22 13:19:23;;;;;;;23.00;15.02;;;12.30;98.50;;;;;;10577853;28;20027;-86
2022/04/22 13:24:24;;;;;;;25.38;15.75;;;11.70;99.90;;;;;;10577857;28;20028;-84
2022/04/22 13:29:25;;;;;;;39.35;21.15;;;11.30;99.90;;;;;;10578097;28;20027;-89
2022/04/22 13:34:25;;;;;;;36.75;19.35;;;11.20;99.90;;;;;;10576363;28;20111;-84
2022/04/22 13:39:26;;;;;;;37.05;24.02;;;11.00;99.90;;;;;;10553697;28;20135;-86
2022/04/22 13:55:05;;;;;;;368.10;208.83;;;10.10;99.90;;;;;;10576215;28;20031;-84
2022/04/22 14:00:07;;;;;;;32.80;18.73;;;9.90;99.90;;;;;;10576984;28;20770;-85
2022/04/22 14:05:08;;;;;;;187.47;129.00;;;9.70;99.90;;;;;;10576683;28;20450;-86
2022/04/22 14:10:08;;;;;;;58.97;41.37;;;9.60;99.90;;;;;;10576288;28;20035;-85
2022/04/22 14:15:09;;;;;;;150.20;86.27;;;9.40;99.90;;;;;;10573690;28;20020;-84
2022/04/22 14:20:12;;;;;;;177.97;82.57;;;9.20;99.90;;;;;;10557024;28;20414;-87
2022/04/22 14:25:12;;;;;;;331.40;158.03;;;9.10;99.90;;;;;;10575495;28;20054;-87
2022/04/22 14:30:13;;;;;;;463.97;255.43;;;9.10;99.90;;;;;;10557010;28;20030;-84
2022/04/22 14:35:14;;;;;;;490.20;252.97;;;9.10;99.90;;;;;;10575880;28;20054;-83
2022/04/22 14:40:14;;;;;;;391.33;206.47;;;9.20;99.90;;;;;;10575392;28;20061;-85
2022/04/22 14:45:15;;;;;;;201.20;101.07;;;9.20;99.90;;;;;;10557088;28;20055;-85
2022/04/22 14:50:16;;;;;;;127.13;66.60;;;9.30;99.90;;;;;;10557022;28;20023;-83
2022/04/22 14:55:16;;;;;;;47.73;24.87;;;9.50;99.90;;;;;;10574864;28;20036;-83
2022/04/22 15:00:17;;;;;;;25.20;14.23;;;9.60;99.90;;;;;;10575116;28;20118;-83
2022/04/22 15:05:18;;;;;;;13.77;9.17;;;9.70;99.90;;;;;;10575145;28;20100;-83
2022/04/22 15:10:19;;;;;;;11.00;7.23;;;9.60;99.90;;;;;;10574349;28;20020;-83
2022/04/22 15:15:20;;;;;;;10.27;7.30;;;9.60;99.90;;;;;;10574903;28;20106;-83
2022/04/22 15:25:40;;;;;;;7.03;4.60;;;9.40;99.90;;;;;;10574923;28;20682;-82
2022/04/22 15:30:59;;;;;;;18.87;8.50;;;9.40;99.90;;;;;;10573815;28;20019;-85
2022/04/22 15:36:05;;;;;;;44.53;19.87;;;9.40;99.90;;;;;;10580382;28;20024;-82
2022/04/22 15:41:08;;;;;;;25.20;12.80;;;9.50;99.90;;;;;;10582003;28;20043;-84
2022/04/22 15:46:10;;;;;;;15.93;9.50;;;9.20;99.90;;;;;;10582384;28;20028;-82
2022/04/22 15:51:10;;;;;;;20.10;10.70;;;9.10;99.90;;;;;;10582232;28;20070;-83
2022/04/22 15:56:12;;;;;;;25.37;11.07;;;8.90;99.90;;;;;;10581849;28;20110;-83
2022/04/22 16:01:15;;;;;;;16.70;8.53;;;8.90;99.90;;;;;;10581757;28;20035;-83
2022/04/22 16:06:18;;;;;;;23.23;10.50;;;8.80;99.90;;;;;;10581226;28;20367;-82
2022/04/22 16:16:41;;;;;;;25.80;14.97;;;8.60;99.90;;;;;;10580761;28;20594;-84
2022/04/22 16:21:42;;;;;;;22.80;14.23;;;8.50;99.90;;;;;;10580859;28;20378;-82
2022/04/22 16:26:42;;;;;;;22.63;13.90;;;8.40;99.90;;;;;;10580434;28;20028;-85
2022/04/22 16:31:43;;;;;;;21.50;13.17;;;8.40;99.90;;;;;;10580290;28;20031;-82
2022/04/22 16:36:43;;;;;;;21.43;13.37;;;8.40;99.90;;;;;;10580091;28;20027;-82
2022/04/22 16:41:45;;;;;;;25.70;14.63;;;8.40;99.90;;;;;;10579558;28;20108;-81
2022/04/22 16:46:46;;;;;;;21.07;13.43;;;8.30;99.90;;;;;;10579360;28;20127;-86
2022/04/22 16:51:47;;;;;;;21.17;12.00;;;8.30;99.90;;;;;;10579868;28;20103;-84
2022/04/22 16:56:48;;;;;;;24.13;13.07;;;8.30;99.90;;;;;;10580148;28;20024;-82
2022/04/22 17:01:48;;;;;;;20.83;13.07;;;8.30;99.90;;;;;;10579150;28;20782;-83
2022/04/22 17:06:51;;;;;;;23.30;14.27;;;8.30;99.90;;;;;;10578604;28;20083;-84
2022/04/22 17:11:51;;;;;;;24.90;14.90;;;8.20;99.90;;;;;;10578646;28;20048;-83
2022/04/22 17:27:30;;;;;;;22.57;12.67;;;8.20;99.90;;;;;;10578424;28;20402;-82
2022/04/22 17:32:31;;;;;;;18.53;11.87;;;8.10;99.90;;;;;;10578263;28;20027;-82
2022/04/22 17:37:34;;;;;;;19.80;11.43;;;8.10;99.90;;;;;;10577424;28;20128;-83
2022/04/22 17:42:35;;;;;;;21.53;12.27;;;8.10;99.90;;;;;;10577442;28;20028;-82
2022/04/22 17:47:35;;;;;;;18.33;11.23;;;8.00;99.90;;;;;;10558904;28;20024;-82
2022/04/22 17:52:37;;;;;;;19.03;12.03;;;8.00;99.90;;;;;;10577007;28;20020;-85
2022/04/22 17:57:38;;;;;;;21.17;12.10;;;8.00;99.90;;;;;;10576308;28;20656;-83
2022/04/22 18:02:39;;;;;;;22.40;13.67;;;8.00;99.90;;;;;;10576783;28;20040;-83
2022/04/22 18:07:40;;;;;;;22.30;13.37;;;8.00;99.90;;;;;;10576968;28;20034;-82
2022/04/22 18:12:41;;;;;;;23.43;14.30;;;8.00;99.90;;;;;;10576075;28;20032;-82
2022/04/22 18:17:41;;;;;;;24.30;13.37;;;8.00;99.90;;;;;;10576269;28;20077;-82
2022/04/22 18:22:42;;;;;;;23.77;14.07;;;7.90;99.90;;;;;;10575897;28;20112;-85
2022/04/22 18:27:43;;;;;;;25.27;15.00;;;7.90;99.90;;;;;;10575784;28;20681;-83
2022/04/22 18:32:44;;;;;;;33.53;17.20;;;7.90;99.90;;;;;;10576091;28;20027;-82
2022/04/22 18:37:44;;;;;;;27.70;15.47;;;7.90;99.90;;;;;;10575362;28;20056;-84
2022/04/22 18:42:45;;;;;;;33.17;16.40;;;7.90;99.90;;;;;;10575413;28;20036;-84
2022/04/22 18:47:47;;;;;;;30.27;16.63;;;7.90;99.90;;;;;;10575596;28;20494;-83
2022/04/22 18:52:49;;;;;;;26.33;15.90;;;7.90;99.90;;;;;;10574875;28;20019;-83
2022/04/22 18:57:50;;;;;;;27.33;16.23;;;7.90;99.90;;;;;;10575695;28;20023;-85
2022/04/22 19:02:51;;;;;;;24.43;15.43;;;7.90;99.90;;;;;;10556587;28;20031;-82
2022/04/22 19:07:52;;;;;;;24.07;14.77;;;7.90;99.90;;;;;;10575469;28;20028;-83
2022/04/22 19:12:52;;;;;;;27.00;15.80;;;7.80;99.90;;;;;;10583428;28;20139;-83
2022/04/22 19:17:53;;;;;;;26.77;14.77;;;7.80;99.90;;;;;;10583616;28;20035;-82
2022/04/22 19:22:54;;;;;;;23.17;15.23;;;7.80;99.90;;;;;;10582749;28;20394;-82
2022/04/22 19:27:54;;;;;;;24.97;14.17;;;7.70;99.90;;;;;;10583092;28;20065;-83
2022/04/22 19:32:56;;;;;;;21.50;13.57;;;7.70;99.90;;;;;;10582446;28;20482;-83
2022/04/22 19:43:34;;;;;;;21.00;13.53;;;7.50;99.90;;;;;;10581865;28;20047;-83
2022/04/22 19:48:35;;;;;;;22.57;14.13;;;7.40;99.90;;;;;;10564911;28;20032;-84
2022/04/22 19:53:36;;;;;;;23.67;14.80;;;7.40;99.90;;;;;;10581687;28;20016;-82
2022/04/22 19:58:36;;;;;;;24.53;14.97;;;7.30;99.90;;;;;;10563813;28;20130;-82
2022/04/22 20:03:37;;;;;;;25.37;15.63;;;7.20;99.90;;;;;;10571248;28;20043;-82
2022/04/22 20:08:37;;;;;;;28.03;16.90;;;7.10;99.90;;;;;;10562353;28;20054;-83
2022/04/22 20:13:38;;;;;;;31.30;17.33;;;7.00;99.90;;;;;;10562685;28;20030;-83
2022/04/22 20:18:41;;;;;;;32.13;18.10;;;6.90;99.90;;;;;;10580555;28;20020;-83
2022/04/22 20:23:42;;;;;;;36.77;20.13;;;6.80;99.90;;;;;;10580020;28;20034;-82
2022/04/22 20:28:42;;;;;;;45.80;21.87;;;6.70;99.90;;;;;;10581248;28;20028;-82
2022/04/22 20:33:43;;;;;;;51.13;25.77;;;6.60;99.90;;;;;;10580425;28;20023;-82
2022/04/22 20:44:04;;;;;;;50.97;24.50;;;6.40;99.90;;;;;;10579797;28;20043;-84
2022/04/22 20:49:04;;;;;;;43.43;23.00;;;6.40;99.90;;;;;;10580875;28;20020;-82
2022/04/22 20:54:06;;;;;;;37.77;23.17;;;6.30;99.90;;;;;;10579731;28;20036;-83
2022/04/22 20:59:06;;;;;;;42.47;23.03;;;6.30;99.90;;;;;;10560863;28;20030;-84
2022/04/22 21:04:08;;;;;;;39.13;23.50;;;6.30;99.90;;;;;;10578930;28;20550;-84
2022/04/22 21:09:08;;;;;;;43.43;23.43;;;6.40;99.90;;;;;;10579168;28;20062;-83
2022/04/22 21:14:09;;;;;;;37.50;21.17;;;6.40;99.90;;;;;;10578809;28;20051;-84
2022/04/22 21:19:10;;;;;;;46.33;22.17;;;6.50;99.90;;;;;;10578656;28;20020;-85
2022/04/22 21:24:11;;;;;;;39.60;21.20;;;6.60;99.90;;;;;;10578307;28;20031;-84
2022/04/22 21:29:13;;;;;;;38.47;21.40;;;6.60;99.90;;;;;;10578381;28;20486;-84
2022/04/22 21:34:13;;;;;;;37.30;21.23;;;6.70;99.90;;;;;;10559521;28;20032;-83
2022/04/22 21:39:15;;;;;;;37.17;20.33;;;6.70;99.90;;;;;;10577922;28;20052;-84
2022/04/22 21:44:15;;;;;;;46.60;22.33;;;6.70;99.90;;;;;;10577712;28;20035;-84
2022/04/22 21:49:16;;;;;;;41.73;21.40;;;6.70;99.90;;;;;;10577398;28;20023;-84
2022/04/22 21:54:17;;;;;;;38.50;22.27;;;6.60;99.90;;;;;;10577438;28;20027;-85
2022/04/22 21:59:18;;;;;;;41.27;23.03;;;6.50;99.90;;;;;;10577091;28;20020;-83
2022/04/22 22:04:21;;;;;;;37.20;21.13;;;6.40;99.90;;;;;;10576684;28;20153;-84
2022/04/22 22:09:22;;;;;;;40.80;23.47;;;6.30;99.90;;;;;;10576831;28;20023;-84
2022/04/22 22:14:24;;;;;;;40.20;24.40;;;6.20;99.90;;;;;;10576066;28;20027;-84
2022/04/22 22:19:26;;;;;;;42.00;24.40;;;6.00;99.90;;;;;;10576180;28;20544;-84
2022/04/22 22:24:26;;;;;;;46.10;24.33;;;5.90;99.90;;;;;;10575904;28;20034;-84
2022/04/22 22:29:29;;;;;;;38.43;22.67;;;5.80;99.90;;;;;;10575545;28;20467;-84
2022/04/22 22:34:29;;;;;;;42.17;24.40;;;5.70;99.90;;;;;;10575862;28;20020;-85
2022/04/22 22:39:30;;;;;;;42.00;24.00;;;5.50;99.90;;;;;;10574869;28;20066;-85
2022/04/22 22:44:30;;;;;;;47.23;25.83;;;5.40;99.90;;;;;;10574516;28;20034;-84
2022/04/22 22:49:32;;;;;;;49.83;26.97;;;5.30;99.90;;;;;;10575873;28;20043;-83
2022/04/22 22:54:32;;;;;;;45.83;27.03;;;5.20;99.90;;;;;;10574681;28;20031;-83
2022/04/22 22:59:33;;;;;;;44.67;24.93;;;5.10;99.90;;;;;;10574810;28;20035;-84
2022/04/22 23:04:34;;;;;;;45.67;24.90;;;5.00;99.90;;;;;;10574853;28;20034;-84
2022/04/22 23:09:34;;;;;;;43.83;25.77;;;4.90;99.90;;;;;;10575526;28;20137;-84
2022/04/22 23:14:35;;;;;;;55.87;27.27;;;4.80;99.90;;;;;;10574835;28;20372;-84
2022/04/22 23:19:35;;;;;;;48.87;26.60;;;4.70;99.90;;;;;;10574314;28;20032;-83
2022/04/22 23:24:42;;;;;;;42.23;25.37;;;4.70;99.90;;;;;;10574664;28;20039;-83
2022/04/22 23:29:43;;;;;;;42.63;24.20;;;4.60;99.90;;;;;;10556334;28;20038;-84
2022/04/22 23:34:43;;;;;;;44.20;23.33;;;4.50;99.90;;;;;;10556461;28;20102;-84
2022/04/22 23:39:44;;;;;;;40.10;22.10;;;4.40;99.90;;;;;;10573935;28;20067;-83
2022/04/22 23:44:45;;;;;;;55.10;27.13;;;4.40;99.90;;;;;;10573821;28;20055;-84
2022/04/22 23:49:47;;;;;;;45.67;24.63;;;4.10;99.90;;;;;;10574401;28;20478;-84
2022/04/22 23:54:47;;;;;;;46.40;23.27;;;4.10;99.90;;;;;;10576131;28;20027;-84
2022/04/22 23:59:48;;;;;;;43.90;22.23;;;3.80;99.90;;;;;;10582504;28;20031;-84
